Time;durP1;ratioP1;P1;durP2;ratioP2;P2;SDS_P1;SDS_P2;PMS_P1;PMS_P2;Temp;Humidity;BMP_temperature;BMP_pressure;BME280_temperature;BME280_humidity;BME280_pressure;Samples;Min_cycle;Max_cycle;Signal;HPM_P1;HPM_P2
2023/05/24 00:01:46;;;;;;;6.37;4.33;;;17.80;50.00;;;;;;5027299;28;20449;-85
2023/05/24 00:04:13;;;;;;;5.47;4.40;;;17.80;50.00;;;;;;4998135;28;20480;-81
2023/05/24 00:06:41;;;;;;;8.90;3.93;;;17.80;50.00;;;;;;5017909;28;20434;-84
2023/05/24 00:09:08;;;;;;;5.10;4.57;;;17.80;50.00;;;;;;5024676;28;20967;-83
2023/05/24 00:11:36;;;;;;;10.83;4.30;;;17.70;50.40;;;;;;5019395;28;21129;-82
2023/05/24 00:14:05;;;;;;;6.13;3.90;;;17.60;49.90;;;;;;5027523;28;21054;-83
2023/05/24 00:16:32;;;;;;;7.33;4.70;;;17.50;50.20;;;;;;5033400;28;20465;-83
2023/05/24 00:18:59;;;;;;;6.13;4.37;;;17.30;50.10;;;;;;5018689;28;20456;-86
2023/05/24 00:21:26;;;;;;;6.60;4.97;;;17.20;50.70;;;;;;5022631;28;20464;-84
2023/05/24 00:23:53;;;;;;;5.50;4.30;;;17.10;50.90;;;;;;5051534;28;20476;-84
2023/05/24 00:26:20;;;;;;;8.00;4.77;;;17.00;50.80;;;;;;5019357;28;21052;-84
2023/05/24 00:28:53;;;;;;;6.10;4.60;;;16.80;51.60;;;;;;5031961;28;20449;-83
2023/05/24 00:31:21;;;;;;;4.20;3.80;;;16.80;51.40;;;;;;5006586;28;20841;-83
2023/05/24 00:33:48;;;;;;;6.80;4.40;;;16.90;51.30;;;;;;5036912;28;20481;-84
2023/05/24 00:36:15;;;;;;;9.37;4.47;;;16.70;51.60;;;;;;5004109;28;20466;-83
2023/05/24 00:38:42;;;;;;;8.37;4.60;;;16.70;52.40;;;;;;5046426;28;20543;-83
2023/05/24 00:41:10;;;;;;;7.03;4.40;;;16.70;51.80;;;;;;5017998;28;20438;-84
2023/05/24 00:43:37;;;;;;;11.33;4.97;;;16.50;51.70;;;;;;5017325;28;20903;-85
2023/05/24 00:46:17;;;;;;;8.23;4.90;;;16.60;52.10;;;;;;5036166;28;20442;-84
2023/05/24 00:48:46;;;;;;;10.53;5.07;;;16.70;51.90;;;;;;5036316;28;20457;-83
2023/05/24 00:51:13;;;;;;;5.00;4.10;;;16.60;51.90;;;;;;5012876;28;20445;-81
2023/05/24 00:53:42;;;;;;;8.77;4.23;;;16.70;52.00;;;;;;5042311;28;20564;-84
2023/05/24 00:56:09;;;;;;;8.43;4.07;;;16.80;51.60;;;;;;5010919;28;20472;-82
2023/05/24 00:58:36;;;;;;;8.30;4.30;;;16.80;51.50;;;;;;5019455;28;20452;-85
2023/05/24 01:01:04;;;;;;;12.13;4.20;;;16.80;51.70;;;;;;5019986;28;20455;-82
2023/05/24 01:03:32;;;;;;;10.77;4.90;;;16.90;51.90;;;;;;5043346;28;20544;-84
2023/05/24 01:06:04;;;;;;;7.70;4.20;;;16.90;51.00;;;;;;5021594;28;20524;-86
2023/05/24 01:09:08;;;;;;;7.53;5.10;;;16.90;51.00;;;;;;5030344;28;21025;-83
2023/05/24 01:11:45;;;;;;;7.87;4.70;;;16.90;51.10;;;;;;5040131;28;20465;-84
2023/05/24 01:14:22;;;;;;;6.53;4.40;;;16.90;51.30;;;;;;5030846;28;20500;-83
2023/05/24 01:16:56;;;;;;;9.03;4.30;;;16.90;51.40;;;;;;5016148;28;20518;-83
2023/05/24 01:19:56;;;;;;;7.33;5.07;;;16.80;51.40;;;;;;5023777;28;20539;-84
2023/05/24 01:25:27;;;;;;;9.13;5.20;;;16.80;51.30;;;;;;5060515;27;20558;-85
2023/05/24 01:27:56;;;;;;;5.77;3.77;;;16.80;51.50;;;;;;5038944;28;20460;-82
2023/05/24 01:30:25;;;;;;;6.60;4.50;;;16.80;51.60;;;;;;5043528;28;20550;-85
2023/05/24 01:32:52;;;;;;;8.93;4.63;;;16.90;51.20;;;;;;5040308;28;21072;-85
2023/05/24 01:35:19;;;;;;;7.80;4.77;;;16.80;50.90;;;;;;5046007;28;22598;-86
2023/05/24 01:37:46;;;;;;;12.93;4.90;;;16.60;52.20;;;;;;5015097;28;20445;-84
2023/05/24 01:40:13;;;;;;;6.37;5.50;;;16.60;52.20;;;;;;5045759;28;20466;-86
2023/05/24 01:42:45;;;;;;;8.83;5.80;;;16.70;52.40;;;;;;5054662;28;20493;-84
2023/05/24 01:45:19;;;;;;;11.70;4.70;;;16.80;52.20;;;;;;5030265;28;20469;-84
2023/05/24 01:48:01;;;;;;;7.87;4.43;;;16.90;51.90;;;;;;5039581;28;20549;-84
2023/05/24 01:50:32;;;;;;;9.50;4.90;;;16.90;52.10;;;;;;5034833;28;20949;-85
2023/05/24 01:53:06;;;;;;;10.23;4.57;;;16.80;52.00;;;;;;5040027;28;20484;-84
2023/05/24 01:55:35;;;;;;;11.23;4.83;;;16.80;51.80;;;;;;5030016;28;20529;-83
2023/05/24 01:58:05;;;;;;;8.00;4.80;;;16.80;52.20;;;;;;5014746;28;20473;-83
2023/05/24 02:00:34;;;;;;;6.70;4.77;;;16.80;51.90;;;;;;5022694;28;20453;-84
2023/05/24 02:03:01;;;;;;;10.03;5.13;;;16.80;51.50;;;;;;5036911;28;20473;-86
2023/05/24 02:05:28;;;;;;;7.43;4.47;;;16.80;51.90;;;;;;5040272;28;20460;-85
2023/05/24 02:07:55;;;;;;;8.43;4.47;;;16.80;51.60;;;;;;5012930;28;20452;-84
2023/05/24 02:10:24;;;;;;;10.37;4.30;;;16.70;51.40;;;;;;5010721;28;20452;-84
2023/05/24 02:12:51;;;;;;;8.20;4.60;;;16.70;51.50;;;;;;5037085;28;20461;-86
2023/05/24 02:15:19;;;;;;;9.43;4.50;;;16.70;50.60;;;;;;5036726;28;20446;-84
2023/05/24 02:17:48;;;;;;;7.67;4.10;;;16.60;50.40;;;;;;5024819;28;20455;-83
2023/05/24 02:20:16;;;;;;;15.63;5.03;;;16.30;50.90;;;;;;5027508;28;20563;-85
2023/05/24 02:22:42;;;;;;;5.17;4.50;;;16.20;52.40;;;;;;5016676;28;20468;-85
2023/05/24 02:25:10;;;;;;;8.73;4.83;;;16.20;52.70;;;;;;5028146;28;20470;-85
2023/05/24 02:27:37;;;;;;;4.87;4.47;;;16.20;51.60;;;;;;5018071;28;20473;-86
2023/05/24 02:30:05;;;;;;;12.60;5.07;;;16.30;52.10;;;;;;5026187;28;20445;-85
2023/05/24 02:32:32;;;;;;;10.60;4.60;;;16.30;51.90;;;;;;5028677;28;20480;-86
2023/05/24 02:35:01;;;;;;;10.20;5.23;;;16.30;51.70;;;;;;5024422;28;21615;-85
2023/05/24 02:37:28;;;;;;;8.80;4.67;;;16.40;51.70;;;;;;5018670;28;20971;-84
2023/05/24 02:39:55;;;;;;;5.40;3.80;;;16.30;51.90;;;;;;5025163;28;20453;-83
2023/05/24 02:42:22;;;;;;;11.33;3.80;;;16.50;52.20;;;;;;5020712;28;20747;-83
2023/05/24 02:44:51;;;;;;;9.93;4.40;;;16.60;52.00;;;;;;5036516;28;20477;-85
2023/05/24 02:47:18;;;;;;;12.73;5.40;;;16.60;51.80;;;;;;5013517;28;20445;-85
2023/05/24 02:49:45;;;;;;;10.13;4.80;;;16.60;52.90;;;;;;5007301;28;20445;-83
2023/05/24 02:52:14;;;;;;;9.63;4.60;;;16.30;54.10;;;;;;5033668;28;20450;-82
2023/05/24 02:54:41;;;;;;;7.70;5.13;;;16.40;54.40;;;;;;5016673;28;20932;-83
2023/05/24 02:57:08;;;;;;;10.83;5.10;;;16.50;53.90;;;;;;5031164;28;20452;-87
2023/05/24 02:59:35;;;;;;;8.47;5.20;;;16.50;54.00;;;;;;4996554;28;20525;-83
2023/05/24 03:02:02;;;;;;;7.50;4.53;;;16.60;54.00;;;;;;5022029;28;20455;-86
2023/05/24 03:04:29;;;;;;;8.60;4.80;;;16.60;53.30;;;;;;5007941;28;21007;-85
2023/05/24 03:06:56;;;;;;;8.63;4.80;;;16.60;53.10;;;;;;5033416;28;20442;-83
2023/05/24 03:09:25;;;;;;;12.43;5.00;;;16.60;52.70;;;;;;4994861;28;20454;-83
2023/05/24 03:11:53;;;;;;;15.00;4.47;;;16.50;52.60;;;;;;5020871;28;20449;-85
2023/05/24 03:14:22;;;;;;;11.27;4.40;;;16.50;52.90;;;;;;5031757;28;20570;-84
2023/05/24 03:16:51;;;;;;;6.27;3.73;;;16.50;52.30;;;;;;5017278;28;20447;-84
2023/05/24 03:19:18;;;;;;;8.00;4.00;;;16.40;52.20;;;;;;5011838;28;20446;-85
2023/05/24 03:21:45;;;;;;;12.10;4.50;;;16.30;51.70;;;;;;5015547;28;20459;-85
2023/05/24 03:24:13;;;;;;;10.60;4.43;;;16.30;51.40;;;;;;4997570;28;20478;-82
2023/05/24 03:26:41;;;;;;;4.63;3.50;;;16.10;49.80;;;;;;5013826;28;20963;-87
2023/05/24 03:29:09;;;;;;;7.60;3.20;;;15.70;50.50;;;;;;4998398;28;20490;-84
2023/05/24 03:31:39;;;;;;;7.60;4.00;;;15.80;51.70;;;;;;5034228;28;20509;-83
2023/05/24 03:34:06;;;;;;;12.40;4.10;;;16.00;51.50;;;;;;5014267;28;20458;-84
2023/05/24 03:36:35;;;;;;;15.57;3.83;;;16.00;50.40;;;;;;5021167;28;20447;-83
2023/05/24 03:39:03;;;;;;;8.00;3.80;;;16.00;50.20;;;;;;5030956;28;20963;-83
2023/05/24 03:41:32;;;;;;;11.07;4.10;;;15.90;50.40;;;;;;5023643;28;20453;-85
2023/05/24 03:44:01;;;;;;;8.17;3.70;;;16.00;51.40;;;;;;5010805;28;20552;-85
2023/05/24 03:46:30;;;;;;;11.67;5.10;;;16.20;51.00;;;;;;5023284;28;20453;-85
2023/05/24 03:48:57;;;;;;;6.50;3.63;;;16.30;50.90;;;;;;4997971;28;20457;-82
2023/05/24 03:51:28;;;;;;;6.40;4.57;;;16.40;51.00;;;;;;4997183;28;20442;-84
2023/05/24 03:53:56;;;;;;;9.17;3.90;;;16.40;50.90;;;;;;5019025;28;20473;-85
2023/05/24 03:56:23;;;;;;;5.33;4.50;;;16.50;50.80;;;;;;5013042;28;21011;-85
2023/05/24 03:58:51;;;;;;;7.53;4.17;;;16.50;50.70;;;;;;5023565;28;20522;-83
2023/05/24 04:01:19;;;;;;;5.80;3.00;;;16.30;49.90;;;;;;5020868;28;20550;-85
2023/05/24 04:03:46;;;;;;;8.90;3.40;;;16.10;49.60;;;;;;5024110;28;20482;-83
2023/05/24 04:06:13;;;;;;;7.40;4.23;;;16.00;50.10;;;;;;5018599;28;20485;-84
2023/05/24 04:08:40;;;;;;;13.10;6.50;;;16.20;49.90;;;;;;5000196;28;20458;-82
2023/05/24 04:11:10;;;;;;;11.87;4.20;;;16.10;49.50;;;;;;5013028;28;21086;-84
2023/05/24 04:13:37;;;;;;;11.67;3.80;;;15.90;48.50;;;;;;5008765;28;20473;-84
2023/05/24 04:16:05;;;;;;;8.17;3.77;;;15.90;48.90;;;;;;5008583;28;20454;-85
2023/05/24 04:18:33;;;;;;;10.50;3.80;;;15.90;49.60;;;;;;5015520;28;20456;-84
2023/05/24 04:21:00;;;;;;;8.97;3.57;;;16.00;49.30;;;;;;5016223;28;21166;-84
2023/05/24 04:23:27;;;;;;;13.50;4.00;;;16.00;48.60;;;;;;5020285;28;20540;-83
2023/05/24 04:25:54;;;;;;;8.47;4.03;;;16.00;49.50;;;;;;5018910;28;20502;-85
2023/05/24 04:28:22;;;;;;;5.93;3.83;;;15.70;48.40;;;;;;5013382;28;20481;-83
2023/05/24 04:30:50;;;;;;;6.57;3.50;;;15.50;49.10;;;;;;5032019;28;20542;-84
2023/05/24 04:33:17;;;;;;;10.50;4.03;;;15.80;49.40;;;;;;5044105;28;20556;-85
2023/05/24 04:35:46;;;;;;;11.23;3.70;;;15.90;49.10;;;;;;5015676;28;20505;-84
2023/05/24 04:38:13;;;;;;;10.20;4.07;;;16.00;48.70;;;;;;5021830;28;20478;-83
2023/05/24 04:40:40;;;;;;;9.20;4.30;;;15.90;48.40;;;;;;5026690;28;21438;-83
2023/05/24 04:43:09;;;;;;;10.30;4.57;;;15.70;48.90;;;;;;5029049;28;20461;-86
2023/05/24 04:45:36;;;;;;;8.83;4.10;;;15.70;49.40;;;;;;5006483;28;21926;-85
2023/05/24 04:48:03;;;;;;;5.20;3.03;;;15.90;49.70;;;;;;5005981;28;20980;-85
2023/05/24 04:50:30;;;;;;;12.10;3.97;;;16.00;49.60;;;;;;5014861;28;21169;-84
2023/05/24 04:52:59;;;;;;;15.50;3.57;;;15.80;48.40;;;;;;5031227;28;21189;-84
2023/05/24 04:55:25;;;;;;;11.03;3.70;;;15.80;48.80;;;;;;5030586;28;20449;-85
2023/05/24 04:57:52;;;;;;;10.83;3.90;;;15.80;48.60;;;;;;5028777;28;20458;-85
2023/05/24 05:00:20;;;;;;;8.83;3.67;;;15.90;48.70;;;;;;5018732;28;20528;-84
2023/05/24 05:02:47;;;;;;;17.23;3.53;;;15.80;49.00;;;;;;5015296;28;20470;-85
2023/05/24 05:05:15;;;;;;;10.27;3.13;;;15.80;48.30;;;;;;5007585;28;20458;-83
2023/05/24 05:07:42;;;;;;;10.30;3.33;;;15.60;48.30;;;;;;5019496;28;20454;-85
2023/05/24 05:10:10;;;;;;;10.77;3.17;;;15.60;48.50;;;;;;5029657;28;20450;-86
2023/05/24 05:12:37;;;;;;;9.60;3.33;;;15.70;49.00;;;;;;5028895;28;20497;-82
2023/05/24 05:15:05;;;;;;;9.57;4.07;;;15.60;47.90;;;;;;5022421;28;20955;-84
2023/05/24 05:17:32;;;;;;;14.83;4.43;;;15.40;48.30;;;;;;5010329;28;20454;-84
2023/05/24 05:19:59;;;;;;;6.67;3.60;;;15.30;48.80;;;;;;4998992;28;20457;-83
2023/05/24 05:22:26;;;;;;;5.43;3.80;;;15.30;49.10;;;;;;5018609;28;20497;-85
2023/05/24 05:24:53;;;;;;;5.43;3.50;;;15.50;49.00;;;;;;5030982;28;20481;-83
2023/05/24 05:27:21;;;;;;;19.37;3.50;;;15.40;49.20;;;;;;5036433;28;20453;-84
2023/05/24 05:29:48;;;;;;;15.93;4.17;;;15.30;48.80;;;;;;5013636;28;20814;-85
2023/05/24 05:32:16;;;;;;;7.43;3.00;;;15.30;49.00;;;;;;5008575;28;20446;-84
2023/05/24 05:34:42;;;;;;;8.60;3.70;;;15.20;48.80;;;;;;5005845;28;20497;-84
2023/05/24 05:37:09;;;;;;;20.00;3.70;;;15.40;48.90;;;;;;5000514;28;20450;-84
2023/05/24 05:39:36;;;;;;;8.20;2.97;;;15.70;49.10;;;;;;5029776;28;20454;-84
2023/05/24 05:42:04;;;;;;;8.43;3.40;;;15.50;48.70;;;;;;5025984;28;20939;-86
2023/05/24 05:44:32;;;;;;;7.43;3.73;;;15.40;49.50;;;;;;4995625;28;20466;-84
2023/05/24 05:46:59;;;;;;;6.43;3.20;;;15.30;49.20;;;;;;5019999;28;20451;-84
2023/05/24 05:49:26;;;;;;;12.70;4.13;;;15.30;50.20;;;;;;5029487;28;20487;-85
2023/05/24 05:51:53;;;;;;;3.13;2.50;;;15.60;49.80;;;;;;5015721;28;20460;-85
2023/05/24 05:54:21;;;;;;;10.60;3.47;;;15.90;48.80;;;;;;5019626;28;20477;-85
2023/05/24 05:56:48;;;;;;;16.17;3.70;;;15.90;48.60;;;;;;5019616;28;20800;-83
2023/05/24 05:59:15;;;;;;;9.87;3.73;;;16.00;48.50;;;;;;5017498;28;20461;-84
2023/05/24 06:01:45;;;;;;;5.60;3.30;;;16.00;47.90;;;;;;5008660;28;20453;-86
2023/05/24 06:04:12;;;;;;;11.20;4.17;;;16.00;47.70;;;;;;5013588;28;20849;-86
2023/05/24 06:06:39;;;;;;;12.70;3.30;;;16.00;48.10;;;;;;5001060;28;21722;-85
2023/05/24 06:09:07;;;;;;;7.83;3.33;;;16.10;47.40;;;;;;5013947;28;20449;-84
2023/05/24 06:11:34;;;;;;;8.40;3.40;;;15.90;48.00;;;;;;5010734;28;20477;-86
2023/05/24 06:14:01;;;;;;;9.77;3.33;;;15.90;48.20;;;;;;5007574;28;20476;-84
2023/05/24 06:16:28;;;;;;;6.40;2.97;;;16.20;48.00;;;;;;5018733;28;21109;-85
2023/05/24 06:18:56;;;;;;;13.70;3.50;;;16.30;47.70;;;;;;5035228;28;20560;-85
2023/05/24 06:21:23;;;;;;;7.83;3.20;;;16.40;47.40;;;;;;5015710;28;20453;-85
2023/05/24 06:23:50;;;;;;;12.90;2.80;;;16.50;46.40;;;;;;5019809;28;20505;-85
2023/05/24 06:26:18;;;;;;;14.53;3.07;;;16.60;46.70;;;;;;5043569;28;20476;-85
2023/05/24 06:28:45;;;;;;;9.60;3.40;;;16.70;47.40;;;;;;5015032;28;20542;-82
2023/05/24 06:31:12;;;;;;;22.13;3.80;;;16.80;46.80;;;;;;4999429;28;20532;-85
2023/05/24 06:33:39;;;;;;;5.13;3.07;;;16.70;46.00;;;;;;5018830;28;20481;-83
2023/05/24 06:36:08;;;;;;;5.70;2.63;;;16.70;47.00;;;;;;5019572;28;20782;-86
2023/05/24 06:38:35;;;;;;;7.63;3.50;;;16.90;47.10;;;;;;5004592;28;20442;-83
2023/05/24 06:41:02;;;;;;;13.93;3.30;;;17.10;45.60;;;;;;5044152;28;20447;-85
2023/05/24 06:43:29;;;;;;;5.47;3.00;;;17.10;45.50;;;;;;5000204;28;20862;-85
2023/05/24 06:45:56;;;;;;;5.80;3.80;;;17.30;46.30;;;;;;5036146;28;20520;-85
2023/05/24 06:48:23;;;;;;;7.80;2.60;;;17.30;45.10;;;;;;5035112;28;20959;-85
2023/05/24 06:50:50;;;;;;;9.00;3.30;;;17.20;45.10;;;;;;5021305;28;20456;-84
2023/05/24 06:53:18;;;;;;;8.83;3.00;;;17.10;44.40;;;;;;5033806;28;20470;-86
2023/05/24 06:55:45;;;;;;;12.13;3.13;;;17.00;45.60;;;;;;5021644;28;20447;-84
2023/05/24 06:58:13;;;;;;;5.27;2.93;;;16.80;45.10;;;;;;5026274;28;20446;-86
2023/05/24 07:00:41;;;;;;;6.50;3.23;;;16.80;45.90;;;;;;5031922;28;20443;-84
2023/05/24 07:03:09;;;;;;;10.03;3.50;;;17.10;45.00;;;;;;5033106;28;20462;-88
2023/05/24 07:05:37;;;;;;;9.83;3.00;;;17.00;45.00;;;;;;5025209;28;20471;-86
2023/05/24 07:08:04;;;;;;;15.20;4.13;;;17.30;45.60;;;;;;5024836;28;20464;-85
2023/05/24 07:10:32;;;;;;;11.00;3.50;;;17.40;45.20;;;;;;5008891;28;20880;-85
2023/05/24 07:13:00;;;;;;;8.17;3.13;;;17.80;45.50;;;;;;5038452;28;20966;-85
2023/05/24 07:15:27;;;;;;;9.87;3.10;;;18.10;44.80;;;;;;5024538;28;20442;-87
2023/05/24 07:17:54;;;;;;;7.27;3.30;;;18.20;44.80;;;;;;5011249;28;20489;-83
2023/05/24 07:20:21;;;;;;;6.70;3.07;;;18.20;44.00;;;;;;5021407;28;20464;-84
2023/05/24 07:22:48;;;;;;;4.87;2.53;;;18.00;43.10;;;;;;5025836;28;21197;-83
2023/05/24 07:25:15;;;;;;;7.60;3.47;;;18.10;43.20;;;;;;5031698;28;20469;-84
2023/05/24 07:27:43;;;;;;;13.77;4.07;;;18.00;43.10;;;;;;5000281;28;20455;-84
2023/05/24 07:30:11;;;;;;;6.53;2.77;;;17.60;43.60;;;;;;5031563;28;20456;-85
2023/05/24 07:32:38;;;;;;;8.37;3.30;;;17.60;43.60;;;;;;5017494;28;20993;-84
2023/05/24 07:35:06;;;;;;;8.20;3.27;;;17.80;42.90;;;;;;5017423;28;20910;-86
2023/05/24 07:37:33;;;;;;;9.53;3.30;;;17.90;42.80;;;;;;5021961;28;20465;-85
2023/05/24 07:40:00;;;;;;;14.83;3.70;;;17.90;43.40;;;;;;5019140;28;20477;-86
2023/05/24 07:42:27;;;;;;;6.57;2.70;;;17.90;42.90;;;;;;5017054;28;20524;-85
2023/05/24 07:44:56;;;;;;;9.87;4.00;;;17.90;42.70;;;;;;5009671;28;20963;-85
2023/05/24 07:47:23;;;;;;;5.73;2.30;;;18.00;42.50;;;;;;5012181;28;20450;-85
2023/05/24 07:49:50;;;;;;;9.13;3.43;;;17.90;41.80;;;;;;5021731;28;20536;-85
2023/05/24 07:52:17;;;;;;;6.60;2.77;;;17.70;42.30;;;;;;5022197;28;20456;-84
2023/05/24 07:54:44;;;;;;;7.37;2.77;;;17.80;43.30;;;;;;5032486;28;22287;-85
2023/05/24 07:57:11;;;;;;;8.13;2.80;;;17.90;42.30;;;;;;5006403;28;20439;-85
2023/05/24 07:59:38;;;;;;;4.40;3.43;;;17.90;42.30;;;;;;5024799;28;20819;-86
2023/05/24 08:02:10;;;;;;;7.10;2.83;;;17.80;41.50;;;;;;5026079;28;20841;-84
2023/05/24 08:04:37;;;;;;;7.20;3.33;;;18.00;43.40;;;;;;5018361;28;20450;-80
2023/05/24 08:07:04;;;;;;;11.87;2.80;;;17.90;41.40;;;;;;5014129;28;20455;-86
2023/05/24 08:09:34;;;;;;;6.90;3.47;;;18.00;42.00;;;;;;4993500;28;20470;-85
2023/05/24 08:12:01;;;;;;;13.60;2.87;;;18.20;42.50;;;;;;5017155;28;20453;-86
2023/05/24 08:14:28;;;;;;;5.03;2.87;;;18.40;41.70;;;;;;5026387;28;20450;-85
2023/05/24 08:16:55;;;;;;;5.87;3.13;;;18.30;42.50;;;;;;5021877;28;20446;-86
2023/05/24 08:19:23;;;;;;;9.30;2.90;;;18.70;42.90;;;;;;4994687;28;20450;-83
2023/05/24 08:21:50;;;;;;;10.23;3.60;;;18.80;41.20;;;;;;5007120;28;20458;-86
2023/05/24 08:24:18;;;;;;;7.73;3.07;;;18.80;41.40;;;;;;5019242;28;21102;-86
2023/05/24 08:26:45;;;;;;;7.20;2.83;;;18.60;40.30;;;;;;5020765;28;20478;-85
2023/05/24 08:29:12;;;;;;;12.10;3.33;;;18.50;41.20;;;;;;5008999;28;20537;-85
2023/05/24 08:31:38;;;;;;;5.20;3.50;;;18.20;41.70;;;;;;5006658;28;20449;-85
2023/05/24 08:34:05;;;;;;;6.30;2.30;;;18.30;41.50;;;;;;5014138;28;20479;-84
2023/05/24 08:36:34;;;;;;;10.50;3.53;;;18.70;41.80;;;;;;5003803;28;20472;-86
2023/05/24 08:39:01;;;;;;;8.63;2.50;;;18.90;40.70;;;;;;5006856;28;20446;-85
2023/05/24 08:41:28;;;;;;;6.27;2.87;;;19.20;40.40;;;;;;5010532;28;20447;-85
2023/05/24 08:43:59;;;;;;;10.00;3.30;;;19.50;40.10;;;;;;5001950;28;20473;-86
2023/05/24 08:46:27;;;;;;;6.00;3.10;;;19.60;39.60;;;;;;5014709;28;20897;-86
2023/05/24 08:48:55;;;;;;;7.27;2.57;;;19.70;38.30;;;;;;5020329;28;20836;-85
2023/05/24 08:51:22;;;;;;;5.73;2.90;;;19.70;38.20;;;;;;5003723;28;20988;-85
2023/05/24 08:53:51;;;;;;;6.50;2.60;;;19.30;38.60;;;;;;5005703;28;21000;-86
2023/05/24 08:56:19;;;;;;;6.17;2.00;;;19.10;40.30;;;;;;5015949;28;20460;-85
2023/05/24 08:58:46;;;;;;;4.57;2.77;;;19.30;39.80;;;;;;5032776;28;20540;-85
2023/05/24 09:01:14;;;;;;;15.13;2.57;;;19.20;37.70;;;;;;5018159;28;20545;-85
2023/05/24 09:03:43;;;;;;;4.27;2.70;;;19.20;37.90;;;;;;5031197;28;20473;-85
2023/05/24 09:06:12;;;;;;;5.80;2.70;;;19.40;37.60;;;;;;5030931;28;20512;-87
2023/05/24 09:08:41;;;;;;;5.50;2.13;;;19.40;36.60;;;;;;5028339;28;20486;-85
2023/05/24 09:11:10;;;;;;;6.67;2.53;;;19.30;37.10;;;;;;5014091;28;20530;-87
2023/05/24 09:13:37;;;;;;;9.20;2.30;;;19.40;37.90;;;;;;5029443;28;20552;-85
2023/05/24 09:16:06;;;;;;;6.90;2.53;;;19.40;37.50;;;;;;5011212;28;20525;-86
2023/05/24 09:18:33;;;;;;;10.70;3.00;;;19.70;37.60;;;;;;5009486;28;20975;-85
2023/05/24 09:21:00;;;;;;;7.50;2.97;;;19.80;37.00;;;;;;5028814;28;20446;-86
2023/05/24 09:23:27;;;;;;;5.90;2.30;;;19.90;35.90;;;;;;5002404;28;20492;-85
2023/05/24 09:25:54;;;;;;;11.20;2.70;;;19.90;35.00;;;;;;5004707;28;20478;-87
2023/05/24 09:28:23;;;;;;;4.33;2.63;;;19.80;36.20;;;;;;5014463;28;20457;-85
2023/05/24 09:31:01;;;;;;;6.40;2.70;;;19.80;35.50;;;;;;5004116;28;20458;-84
2023/05/24 09:33:32;;;;;;;4.73;2.57;;;19.70;34.10;;;;;;5012839;28;20491;-86
2023/05/24 09:36:00;;;;;;;9.63;3.10;;;19.30;35.70;;;;;;5004585;28;20454;-85
2023/05/24 09:38:28;;;;;;;5.90;3.20;;;19.10;35.50;;;;;;5018661;28;20457;-87
2023/05/24 09:41:01;;;;;;;6.87;2.27;;;19.20;36.70;;;;;;5014701;28;20449;-85
2023/05/24 09:43:30;;;;;;;7.60;2.10;;;19.30;34.80;;;;;;5011647;28;20462;-86
2023/05/24 09:45:58;;;;;;;4.77;2.93;;;19.40;35.40;;;;;;5001048;28;20504;-85
2023/05/24 09:48:26;;;;;;;4.30;2.30;;;19.30;34.60;;;;;;5015186;28;20458;-86
2023/05/24 09:51:03;;;;;;;3.97;2.40;;;19.30;34.00;;;;;;5022821;28;20446;-84
2023/05/24 09:53:32;;;;;;;6.93;2.50;;;19.20;34.00;;;;;;5031036;28;21086;-85
2023/05/24 09:56:00;;;;;;;3.57;1.73;;;18.80;32.70;;;;;;5004084;28;20820;-86
2023/05/24 09:58:31;;;;;;;5.07;2.97;;;18.80;35.10;;;;;;5031689;28;20504;-85
2023/05/24 10:01:06;;;;;;;4.50;2.67;;;18.90;35.30;;;;;;5009063;28;20453;-86
2023/05/24 10:03:34;;;;;;;15.67;3.00;;;19.00;35.60;;;;;;5014778;28;20477;-84
2023/05/24 10:06:03;;;;;;;10.23;2.50;;;19.30;35.00;;;;;;5030905;28;20889;-84
2023/05/24 10:08:31;;;;;;;6.60;2.10;;;19.30;35.00;;;;;;5014996;28;20449;-84
2023/05/24 10:10:59;;;;;;;8.30;3.03;;;19.50;36.40;;;;;;5010374;28;20496;-85
2023/05/24 10:13:27;;;;;;;1.97;1.77;;;19.30;35.20;;;;;;5030588;28;20473;-85
2023/05/24 10:15:56;;;;;;;6.50;3.00;;;19.40;36.00;;;;;;5031287;28;21153;-85
2023/05/24 10:18:23;;;;;;;4.27;2.50;;;19.10;35.20;;;;;;5006902;28;20553;-84
2023/05/24 10:20:51;;;;;;;7.80;2.77;;;19.20;35.10;;;;;;5017887;28;20468;-85
2023/05/24 10:23:21;;;;;;;5.67;2.60;;;19.20;34.40;;;;;;5006090;28;20486;-85
2023/05/24 10:25:54;;;;;;;7.77;2.63;;;19.00;36.30;;;;;;5017770;28;21111;-85
2023/05/24 10:28:24;;;;;;;9.50;2.70;;;18.90;36.10;;;;;;5007253;28;20444;-86
2023/05/24 10:31:01;;;;;;;6.53;2.20;;;18.90;36.50;;;;;;5015187;28;22518;-85
2023/05/24 10:33:29;;;;;;;8.30;2.47;;;19.10;36.90;;;;;;5033601;28;20774;-85
2023/05/24 10:35:57;;;;;;;10.23;3.40;;;19.20;35.70;;;;;;5017806;28;21000;-86
2023/05/24 10:38:24;;;;;;;5.10;2.30;;;19.30;35.50;;;;;;5006522;28;20453;-85
2023/05/24 10:40:51;;;;;;;8.43;2.27;;;19.40;35.50;;;;;;5006949;28;21367;-86
2023/05/24 10:43:18;;;;;;;10.10;2.80;;;19.50;33.80;;;;;;5021602;28;20470;-86
2023/05/24 10:45:49;;;;;;;8.90;2.53;;;19.60;35.00;;;;;;5041100;28;20529;-86
2023/05/24 10:48:35;;;;;;;6.53;2.80;;;19.90;35.10;;;;;;5040603;28;20520;-86
2023/05/24 10:51:23;;;;;;;4.67;2.17;;;20.10;35.80;;;;;;5007387;28;20526;-86
2023/05/24 10:53:50;;;;;;;6.60;2.50;;;19.90;34.90;;;;;;5017843;28;20857;-85
2023/05/24 10:56:19;;;;;;;7.63;3.13;;;19.60;35.20;;;;;;5028359;28;20516;-85
2023/05/24 10:58:59;;;;;;;3.07;2.20;;;19.70;35.10;;;;;;5013139;28;20453;-85
2023/05/24 11:01:27;;;;;;;3.37;2.70;;;19.50;34.20;;;;;;5030106;28;20531;-86
2023/05/24 11:04:09;;;;;;;5.40;2.77;;;19.80;34.40;;;;;;5034184;28;20465;-85
2023/05/24 11:06:46;;;;;;;8.23;2.50;;;19.90;33.80;;;;;;5031988;28;20541;-84
2023/05/24 11:09:14;;;;;;;11.43;2.90;;;20.00;34.90;;;;;;5031264;28;20536;-85
2023/05/24 11:11:45;;;;;;;4.37;2.43;;;20.20;32.40;;;;;;5014547;28;20462;-86
2023/05/24 11:14:13;;;;;;;5.33;2.60;;;20.00;34.10;;;;;;5015756;28;20535;-86
2023/05/24 11:16:40;;;;;;;4.30;2.57;;;20.10;33.30;;;;;;5024199;28;20446;-85
2023/05/24 11:19:19;;;;;;;6.50;2.30;;;20.40;34.20;;;;;;5006453;28;20447;-86
2023/05/24 11:21:48;;;;;;;3.77;2.40;;;20.60;32.80;;;;;;4998902;28;20457;-86
2023/05/24 11:24:16;;;;;;;2.73;2.03;;;20.90;31.90;;;;;;5015190;28;20482;-84
2023/05/24 11:26:44;;;;;;;6.70;2.30;;;20.80;32.10;;;;;;5007262;28;20476;-86
2023/05/24 11:29:16;;;;;;;6.73;2.50;;;20.40;31.70;;;;;;5024486;28;20522;-86
2023/05/24 11:31:51;;;;;;;7.10;2.23;;;20.80;33.40;;;;;;5017339;28;20457;-85
2023/05/24 11:34:19;;;;;;;4.47;2.27;;;21.70;34.30;;;;;;4996001;28;20993;-85
2023/05/24 11:36:47;;;;;;;3.00;1.70;;;21.90;31.30;;;;;;4996458;28;20478;-86
2023/05/24 11:39:14;;;;;;;6.50;1.90;;;21.50;31.50;;;;;;5021523;28;20454;-84
2023/05/24 11:41:42;;;;;;;5.50;2.33;;;21.40;32.00;;;;;;5037124;28;20465;-85
2023/05/24 11:44:10;;;;;;;10.50;2.73;;;21.70;32.20;;;;;;5005142;28;20470;-85
2023/05/24 11:46:38;;;;;;;3.40;2.90;;;22.00;32.30;;;;;;5027232;28;21032;-84
2023/05/24 11:49:06;;;;;;;6.77;2.57;;;22.30;31.80;;;;;;5029795;28;20462;-85
2023/05/24 11:51:36;;;;;;;7.53;2.40;;;22.50;31.20;;;;;;5014867;28;20441;-86
2023/05/24 11:54:03;;;;;;;6.20;2.67;;;22.70;32.10;;;;;;5001059;28;20465;-86
2023/05/24 11:56:31;;;;;;;8.90;2.57;;;23.20;32.30;;;;;;5028439;28;20948;-85
2023/05/24 11:59:17;;;;;;;4.60;2.10;;;23.30;32.10;;;;;;4996104;28;20451;-85
2023/05/24 12:01:45;;;;;;;5.57;2.30;;;23.50;29.90;;;;;;5013979;28;20466;-86
2023/05/24 12:04:12;;;;;;;4.13;2.50;;;23.30;29.70;;;;;;5025612;28;20563;-86
2023/05/24 12:06:41;;;;;;;7.53;2.60;;;22.80;28.90;;;;;;5029557;28;20560;-86
2023/05/24 12:09:12;;;;;;;8.73;2.50;;;22.70;29.90;;;;;;5015568;28;20920;-86
2023/05/24 12:11:40;;;;;;;5.63;2.57;;;22.90;29.90;;;;;;5012729;28;20435;-86
2023/05/24 12:14:11;;;;;;;3.43;2.10;;;22.90;29.90;;;;;;5022552;28;20496;-86
2023/05/24 12:16:38;;;;;;;6.23;2.60;;;22.70;30.30;;;;;;5026433;28;20457;-85
2023/05/24 12:19:05;;;;;;;4.67;2.60;;;22.50;31.40;;;;;;5014682;28;20829;-84
2023/05/24 12:21:33;;;;;;;5.97;2.40;;;22.70;29.90;;;;;;5029340;28;20904;-87
2023/05/24 12:24:13;;;;;;;8.87;4.10;;;22.50;30.00;;;;;;5007365;28;20485;-85
2023/05/24 12:26:44;;;;;;;9.60;2.90;;;22.40;31.30;;;;;;5015797;28;20491;-85
2023/05/24 12:29:11;;;;;;;6.07;3.20;;;22.40;31.40;;;;;;5017291;28;20544;-86
2023/05/24 12:31:41;;;;;;;7.93;2.70;;;22.20;31.60;;;;;;5013195;28;20435;-85
2023/05/24 12:34:11;;;;;;;5.40;2.87;;;22.10;30.00;;;;;;5021336;28;20520;-86
2023/05/24 12:36:38;;;;;;;8.80;2.90;;;22.10;31.50;;;;;;5001522;28;21730;-85
2023/05/24 12:39:18;;;;;;;3.53;2.90;;;22.40;31.70;;;;;;5012329;28;20561;-84
2023/05/24 12:41:50;;;;;;;4.23;2.40;;;22.60;30.80;;;;;;5023107;28;20449;-86
2023/05/24 12:44:18;;;;;;;4.00;2.37;;;22.90;28.50;;;;;;5028399;28;20904;-86
2023/05/24 12:46:45;;;;;;;5.47;2.37;;;23.00;29.60;;;;;;5021923;28;21078;-85
2023/05/24 12:49:12;;;;;;;7.13;2.60;;;23.20;28.30;;;;;;5030426;28;20522;-87
2023/05/24 12:51:39;;;;;;;7.50;2.67;;;23.30;28.60;;;;;;5035657;28;21069;-84
2023/05/24 12:54:06;;;;;;;4.30;2.40;;;23.60;28.70;;;;;;5018751;28;20470;-83